sensor_id;sensor_type;location;lat;lon;timestamp;P1;durP1;ratioP1;P2;durP2;ratioP2
4186;SDS011;2107;52.306;10.484;2023-03-18T00:00:20;0.80;;;0.80;;
4186;SDS011;2107;52.306;10.484;2023-03-18T00:02:47;1.10;;;1.10;;
4186;SDS011;2107;52.306;10.484;2023-03-18T00:05:16;0.70;;;0.70;;
4186;SDS011;2107;52.306;10.484;2023-03-18T00:07:44;0.87;;;0.87;;
4186;SDS011;2107;52.306;10.484;2023-03-18T00:10:11;0.80;;;0.80;;
4186;SDS011;2107;52.306;10.484;2023-03-18T00:12:39;0.80;;;0.80;;
4186;SDS011;2107;52.306;10.484;2023-03-18T00:15:08;0.90;;;0.90;;
4186;SDS011;2107;52.306;10.484;2023-03-18T00:17:37;0.80;;;0.80;;
4186;SDS011;2107;52.306;10.484;2023-03-18T00:20:05;0.80;;;0.80;;
4186;SDS011;2107;52.306;10.484;2023-03-18T00:22:36;0.80;;;0.80;;
4186;SDS011;2107;52.306;10.484;2023-03-18T00:25:05;0.90;;;0.90;;
4186;SDS011;2107;52.306;10.484;2023-03-18T00:27:33;0.70;;;0.70;;
4186;SDS011;2107;52.306;10.484;2023-03-18T00:30:00;0.80;;;0.80;;
4186;SDS011;2107;52.306;10.484;2023-03-18T00:32:29;0.70;;;0.70;;
4186;SDS011;2107;52.306;10.484;2023-03-18T00:34:56;1.00;;;1.00;;
4186;SDS011;2107;52.306;10.484;2023-03-18T00:37:25;1.00;;;1.00;;
4186;SDS011;2107;52.306;10.484;2023-03-18T00:39:57;0.90;;;0.90;;
4186;SDS011;2107;52.306;10.484;2023-03-18T00:42:28;0.90;;;0.90;;
4186;SDS011;2107;52.306;10.484;2023-03-18T00:45:01;0.90;;;0.90;;
4186;SDS011;2107;52.306;10.484;2023-03-18T00:47:28;0.90;;;0.90;;
4186;SDS011;2107;52.306;10.484;2023-03-18T00:49:55;0.80;;;0.80;;
4186;SDS011;2107;52.306;10.484;2023-03-18T00:52:22;0.60;;;0.60;;
4186;SDS011;2107;52.306;10.484;2023-03-18T00:54:49;0.70;;;0.70;;
4186;SDS011;2107;52.306;10.484;2023-03-18T00:57:17;0.97;;;0.97;;
4186;SDS011;2107;52.306;10.484;2023-03-18T00:59:44;0.70;;;0.70;;
4186;SDS011;2107;52.306;10.484;2023-03-18T01:02:12;0.80;;;0.80;;
4186;SDS011;2107;52.306;10.484;2023-03-18T01:04:39;0.60;;;0.60;;
4186;SDS011;2107;52.306;10.484;2023-03-18T01:07:06;0.70;;;0.70;;
4186;SDS011;2107;52.306;10.484;2023-03-18T01:09:34;0.60;;;0.60;;
4186;SDS011;2107;52.306;10.484;2023-03-18T01:12:03;0.73;;;0.73;;
4186;SDS011;2107;52.306;10.484;2023-03-18T01:14:32;0.90;;;0.90;;
4186;SDS011;2107;52.306;10.484;2023-03-18T01:17:00;1.10;;;1.10;;
4186;SDS011;2107;52.306;10.484;2023-03-18T01:19:27;0.80;;;0.80;;
4186;SDS011;2107;52.306;10.484;2023-03-18T01:21:54;0.60;;;0.60;;
4186;SDS011;2107;52.306;10.484;2023-03-18T01:24:21;0.80;;;0.80;;
4186;SDS011;2107;52.306;10.484;2023-03-18T01:26:48;0.60;;;0.60;;
4186;SDS011;2107;52.306;10.484;2023-03-18T01:29:16;0.80;;;0.80;;
4186;SDS011;2107;52.306;10.484;2023-03-18T01:31:46;0.77;;;0.77;;
4186;SDS011;2107;52.306;10.484;2023-03-18T01:34:13;1.07;;;1.07;;
4186;SDS011;2107;52.306;10.484;2023-03-18T01:36:40;0.90;;;0.90;;
4186;SDS011;2107;52.306;10.484;2023-03-18T01:39:08;1.10;;;1.10;;
4186;SDS011;2107;52.306;10.484;2023-03-18T01:41:35;1.00;;;1.00;;
4186;SDS011;2107;52.306;10.484;2023-03-18T01:44:02;0.90;;;0.90;;
4186;SDS011;2107;52.306;10.484;2023-03-18T01:46:31;1.00;;;1.00;;
4186;SDS011;2107;52.306;10.484;2023-03-18T01:49:02;1.10;;;1.10;;
4186;SDS011;2107;52.306;10.484;2023-03-18T01:51:32;0.70;;;0.70;;
4186;SDS011;2107;52.306;10.484;2023-03-18T01:54:00;1.10;;;1.10;;
4186;SDS011;2107;52.306;10.484;2023-03-18T01:56:28;0.60;;;0.60;;
4186;SDS011;2107;52.306;10.484;2023-03-18T01:58:56;0.70;;;0.70;;
4186;SDS011;2107;52.306;10.484;2023-03-18T02:01:26;1.07;;;1.07;;
4186;SDS011;2107;52.306;10.484;2023-03-18T02:03:56;0.70;;;0.70;;
4186;SDS011;2107;52.306;10.484;2023-03-18T02:06:25;0.50;;;0.50;;
4186;SDS011;2107;52.306;10.484;2023-03-18T02:08:53;0.90;;;0.90;;
4186;SDS011;2107;52.306;10.484;2023-03-18T02:11:20;0.60;;;0.60;;
4186;SDS011;2107;52.306;10.484;2023-03-18T02:13:48;0.80;;;0.80;;
4186;SDS011;2107;52.306;10.484;2023-03-18T02:16:17;0.50;;;0.50;;
4186;SDS011;2107;52.306;10.484;2023-03-18T02:18:49;0.83;;;0.83;;
4186;SDS011;2107;52.306;10.484;2023-03-18T02:21:22;1.00;;;1.00;;
4186;SDS011;2107;52.306;10.484;2023-03-18T02:24:03;1.00;;;1.00;;
4186;SDS011;2107;52.306;10.484;2023-03-18T02:26:40;0.67;;;0.67;;
4186;SDS011;2107;52.306;10.484;2023-03-18T02:29:14;0.80;;;0.80;;
4186;SDS011;2107;52.306;10.484;2023-03-18T02:31:43;0.90;;;0.90;;
4186;SDS011;2107;52.306;10.484;2023-03-18T02:34:10;0.90;;;0.90;;
4186;SDS011;2107;52.306;10.484;2023-03-18T02:36:38;0.60;;;0.60;;
4186;SDS011;2107;52.306;10.484;2023-03-18T02:39:06;0.80;;;0.80;;
4186;SDS011;2107;52.306;10.484;2023-03-18T02:41:37;0.53;;;0.53;;
4186;SDS011;2107;52.306;10.484;2023-03-18T02:44:03;0.90;;;0.90;;
4186;SDS011;2107;52.306;10.484;2023-03-18T02:46:37;0.60;;;0.60;;
4186;SDS011;2107;52.306;10.484;2023-03-18T02:49:13;0.77;;;0.77;;
4186;SDS011;2107;52.306;10.484;2023-03-18T02:51:42;0.70;;;0.70;;
4186;SDS011;2107;52.306;10.484;2023-03-18T02:54:10;0.70;;;0.70;;
4186;SDS011;2107;52.306;10.484;2023-03-18T02:56:38;0.60;;;0.60;;
4186;SDS011;2107;52.306;10.484;2023-03-18T02:59:06;0.60;;;0.60;;
4186;SDS011;2107;52.306;10.484;2023-03-18T03:01:36;0.70;;;0.70;;
4186;SDS011;2107;52.306;10.484;2023-03-18T03:04:03;0.80;;;0.80;;
4186;SDS011;2107;52.306;10.484;2023-03-18T03:06:31;0.70;;;0.70;;
4186;SDS011;2107;52.306;10.484;2023-03-18T03:08:58;0.80;;;0.80;;
4186;SDS011;2107;52.306;10.484;2023-03-18T03:11:27;0.90;;;0.90;;
4186;SDS011;2107;52.306;10.484;2023-03-18T03:13:54;0.80;;;0.80;;
4186;SDS011;2107;52.306;10.484;2023-03-18T03:16:20;0.80;;;0.80;;
4186;SDS011;2107;52.306;10.484;2023-03-18T03:18:49;0.70;;;0.70;;
4186;SDS011;2107;52.306;10.484;2023-03-18T03:21:16;0.70;;;0.70;;
4186;SDS011;2107;52.306;10.484;2023-03-18T03:23:45;0.80;;;0.80;;
4186;SDS011;2107;52.306;10.484;2023-03-18T03:26:13;0.80;;;0.80;;
4186;SDS011;2107;52.306;10.484;2023-03-18T03:28:40;0.77;;;0.77;;
4186;SDS011;2107;52.306;10.484;2023-03-18T03:31:08;0.77;;;0.77;;
4186;SDS011;2107;52.306;10.484;2023-03-18T03:33:36;0.60;;;0.60;;
4186;SDS011;2107;52.306;10.484;2023-03-18T03:36:07;0.80;;;0.80;;
4186;SDS011;2107;52.306;10.484;2023-03-18T03:38:35;0.77;;;0.77;;
4186;SDS011;2107;52.306;10.484;2023-03-18T03:41:03;0.70;;;0.70;;
4186;SDS011;2107;52.306;10.484;2023-03-18T03:43:30;0.70;;;0.70;;
4186;SDS011;2107;52.306;10.484;2023-03-18T03:45:58;0.80;;;0.80;;
4186;SDS011;2107;52.306;10.484;2023-03-18T03:48:24;0.80;;;0.80;;
4186;SDS011;2107;52.306;10.484;2023-03-18T03:50:52;0.70;;;0.70;;
4186;SDS011;2107;52.306;10.484;2023-03-18T03:53:21;0.70;;;0.70;;
4186;SDS011;2107;52.306;10.484;2023-03-18T03:55:49;0.63;;;0.63;;
4186;SDS011;2107;52.306;10.484;2023-03-18T03:58:15;0.67;;;0.67;;
4186;SDS011;2107;52.306;10.484;2023-03-18T04:00:42;0.70;;;0.70;;
4186;SDS011;2107;52.306;10.484;2023-03-18T04:03:09;0.80;;;0.80;;
4186;SDS011;2107;52.306;10.484;2023-03-18T04:05:36;0.80;;;0.80;;
4186;SDS011;2107;52.306;10.484;2023-03-18T04:08:03;0.80;;;0.80;;
4186;SDS011;2107;52.306;10.484;2023-03-18T04:10:32;0.90;;;0.90;;
4186;SDS011;2107;52.306;10.484;2023-03-18T04:13:02;0.70;;;0.70;;
4186;SDS011;2107;52.306;10.484;2023-03-18T04:15:29;0.80;;;0.80;;
4186;SDS011;2107;52.306;10.484;2023-03-18T04:17:56;0.87;;;0.87;;
4186;SDS011;2107;52.306;10.484;2023-03-18T04:20:28;1.20;;;1.20;;
4186;SDS011;2107;52.306;10.484;2023-03-18T04:22:55;1.40;;;1.40;;
4186;SDS011;2107;52.306;10.484;2023-03-18T04:25:25;1.40;;;1.40;;
4186;SDS011;2107;52.306;10.484;2023-03-18T04:27:53;1.40;;;1.40;;
4186;SDS011;2107;52.306;10.484;2023-03-18T04:30:20;1.40;;;1.40;;
4186;SDS011;2107;52.306;10.484;2023-03-18T04:32:49;1.40;;;1.40;;
4186;SDS011;2107;52.306;10.484;2023-03-18T04:35:16;1.40;;;1.40;;
4186;SDS011;2107;52.306;10.484;2023-03-18T04:37:43;1.27;;;1.27;;
4186;SDS011;2107;52.306;10.484;2023-03-18T04:40:10;1.10;;;1.10;;
4186;SDS011;2107;52.306;10.484;2023-03-18T04:42:38;1.20;;;1.20;;
4186;SDS011;2107;52.306;10.484;2023-03-18T04:45:07;1.30;;;1.30;;
4186;SDS011;2107;52.306;10.484;2023-03-18T04:47:34;1.20;;;1.20;;
4186;SDS011;2107;52.306;10.484;2023-03-18T04:50:02;1.20;;;1.20;;
4186;SDS011;2107;52.306;10.484;2023-03-18T04:52:29;1.00;;;1.00;;
4186;SDS011;2107;52.306;10.484;2023-03-18T04:54:56;1.00;;;1.00;;
4186;SDS011;2107;52.306;10.484;2023-03-18T04:57:23;1.00;;;1.00;;
4186;SDS011;2107;52.306;10.484;2023-03-18T04:59:50;1.00;;;1.00;;
4186;SDS011;2107;52.306;10.484;2023-03-18T05:02:18;1.00;;;1.00;;
4186;SDS011;2107;52.306;10.484;2023-03-18T05:04:45;1.10;;;1.10;;
4186;SDS011;2107;52.306;10.484;2023-03-18T05:07:12;1.00;;;1.00;;
4186;SDS011;2107;52.306;10.484;2023-03-18T05:09:42;0.90;;;0.90;;
4186;SDS011;2107;52.306;10.484;2023-03-18T05:12:10;0.90;;;0.90;;
4186;SDS011;2107;52.306;10.484;2023-03-18T05:14:39;1.00;;;1.00;;
4186;SDS011;2107;52.306;10.484;2023-03-18T05:17:07;0.90;;;0.90;;
4186;SDS011;2107;52.306;10.484;2023-03-18T05:19:40;0.90;;;0.90;;
4186;SDS011;2107;52.306;10.484;2023-03-18T05:22:08;0.90;;;0.90;;
4186;SDS011;2107;52.306;10.484;2023-03-18T05:24:35;0.77;;;0.77;;
4186;SDS011;2107;52.306;10.484;2023-03-18T05:27:02;0.80;;;0.80;;
4186;SDS011;2107;52.306;10.484;2023-03-18T05:29:29;0.90;;;0.90;;
4186;SDS011;2107;52.306;10.484;2023-03-18T05:31:56;0.80;;;0.80;;
4186;SDS011;2107;52.306;10.484;2023-03-18T05:34:23;0.90;;;0.90;;
4186;SDS011;2107;52.306;10.484;2023-03-18T05:36:51;0.70;;;0.70;;
4186;SDS011;2107;52.306;10.484;2023-03-18T05:39:18;0.60;;;0.60;;
4186;SDS011;2107;52.306;10.484;2023-03-18T05:41:45;0.60;;;0.60;;
4186;SDS011;2107;52.306;10.484;2023-03-18T05:44:12;0.70;;;0.70;;
4186;SDS011;2107;52.306;10.484;2023-03-18T05:46:39;0.60;;;0.60;;
4186;SDS011;2107;52.306;10.484;2023-03-18T05:49:05;0.50;;;0.50;;
4186;SDS011;2107;52.306;10.484;2023-03-18T05:51:34;0.60;;;0.60;;
4186;SDS011;2107;52.306;10.484;2023-03-18T05:54:03;0.60;;;0.60;;
4186;SDS011;2107;52.306;10.484;2023-03-18T05:56:30;0.70;;;0.70;;
4186;SDS011;2107;52.306;10.484;2023-03-18T05:58:57;0.67;;;0.67;;
4186;SDS011;2107;52.306;10.484;2023-03-18T06:01:23;0.60;;;0.60;;
4186;SDS011;2107;52.306;10.484;2023-03-18T06:03:50;0.70;;;0.70;;
4186;SDS011;2107;52.306;10.484;2023-03-18T06:06:18;0.80;;;0.80;;
4186;SDS011;2107;52.306;10.484;2023-03-18T06:08:46;0.70;;;0.70;;
4186;SDS011;2107;52.306;10.484;2023-03-18T06:11:15;0.60;;;0.60;;
4186;SDS011;2107;52.306;10.484;2023-03-18T06:13:42;0.60;;;0.60;;
4186;SDS011;2107;52.306;10.484;2023-03-18T06:16:09;0.40;;;0.40;;
4186;SDS011;2107;52.306;10.484;2023-03-18T06:18:36;0.50;;;0.50;;
4186;SDS011;2107;52.306;10.484;2023-03-18T06:21:04;0.50;;;0.50;;
4186;SDS011;2107;52.306;10.484;2023-03-18T06:23:33;0.50;;;0.50;;
4186;SDS011;2107;52.306;10.484;2023-03-18T06:26:01;0.60;;;0.60;;
4186;SDS011;2107;52.306;10.484;2023-03-18T06:28:30;0.50;;;0.50;;
4186;SDS011;2107;52.306;10.484;2023-03-18T06:30:57;0.50;;;0.50;;
4186;SDS011;2107;52.306;10.484;2023-03-18T06:33:24;0.50;;;0.50;;
4186;SDS011;2107;52.306;10.484;2023-03-18T06:35:51;0.50;;;0.50;;
4186;SDS011;2107;52.306;10.484;2023-03-18T06:38:20;0.53;;;0.53;;
4186;SDS011;2107;52.306;10.484;2023-03-18T06:40:47;0.50;;;0.50;;
4186;SDS011;2107;52.306;10.484;2023-03-18T06:43:14;0.40;;;0.40;;
4186;SDS011;2107;52.306;10.484;2023-03-18T06:45:42;0.50;;;0.50;;
4186;SDS011;2107;52.306;10.484;2023-03-18T06:48:09;0.60;;;0.60;;
4186;SDS011;2107;52.306;10.484;2023-03-18T06:50:36;0.40;;;0.40;;
4186;SDS011;2107;52.306;10.484;2023-03-18T06:53:03;0.50;;;0.50;;
4186;SDS011;2107;52.306;10.484;2023-03-18T06:55:30;0.50;;;0.50;;
4186;SDS011;2107;52.306;10.484;2023-03-18T06:57:57;0.50;;;0.50;;
4186;SDS011;2107;52.306;10.484;2023-03-18T07:00:24;0.50;;;0.50;;
4186;SDS011;2107;52.306;10.484;2023-03-18T07:02:53;0.50;;;0.50;;
4186;SDS011;2107;52.306;10.484;2023-03-18T07:05:20;0.50;;;0.50;;
4186;SDS011;2107;52.306;10.484;2023-03-18T07:07:47;0.50;;;0.50;;
4186;SDS011;2107;52.306;10.484;2023-03-18T07:10:16;0.40;;;0.40;;
4186;SDS011;2107;52.306;10.484;2023-03-18T07:12:45;0.40;;;0.40;;
4186;SDS011;2107;52.306;10.484;2023-03-18T07:15:13;0.20;;;0.20;;
4186;SDS011;2107;52.306;10.484;2023-03-18T07:17:40;0.40;;;0.40;;
4186;SDS011;2107;52.306;10.484;2023-03-18T07:20:09;0.50;;;0.50;;
4186;SDS011;2107;52.306;10.484;2023-03-18T07:22:36;0.60;;;0.60;;
4186;SDS011;2107;52.306;10.484;2023-03-18T07:25:04;0.50;;;0.50;;
4186;SDS011;2107;52.306;10.484;2023-03-18T07:27:31;0.40;;;0.40;;
4186;SDS011;2107;52.306;10.484;2023-03-18T07:29:58;0.40;;;0.40;;
4186;SDS011;2107;52.306;10.484;2023-03-18T07:32:25;0.33;;;0.33;;
4186;SDS011;2107;52.306;10.484;2023-03-18T07:34:54;0.50;;;0.50;;
4186;SDS011;2107;52.306;10.484;2023-03-18T07:37:22;0.40;;;0.40;;
4186;SDS011;2107;52.306;10.484;2023-03-18T07:39:50;0.40;;;0.40;;
4186;SDS011;2107;52.306;10.484;2023-03-18T07:42:18;0.40;;;0.40;;
4186;SDS011;2107;52.306;10.484;2023-03-18T07:44:44;0.50;;;0.50;;
4186;SDS011;2107;52.306;10.484;2023-03-18T07:47:11;0.40;;;0.40;;
4186;SDS011;2107;52.306;10.484;2023-03-18T07:49:40;0.40;;;0.40;;
4186;SDS011;2107;52.306;10.484;2023-03-18T07:52:06;0.50;;;0.50;;
4186;SDS011;2107;52.306;10.484;2023-03-18T07:54:35;0.40;;;0.40;;
4186;SDS011;2107;52.306;10.484;2023-03-18T07:57:03;0.50;;;0.50;;
4186;SDS011;2107;52.306;10.484;2023-03-18T07:59:34;0.40;;;0.40;;
4186;SDS011;2107;52.306;10.484;2023-03-18T08:02:01;0.40;;;0.40;;
4186;SDS011;2107;52.306;10.484;2023-03-18T08:04:30;0.50;;;0.50;;
4186;SDS011;2107;52.306;10.484;2023-03-18T08:06:57;0.30;;;0.30;;
4186;SDS011;2107;52.306;10.484;2023-03-18T08:09:24;0.40;;;0.40;;
4186;SDS011;2107;52.306;10.484;2023-03-18T08:11:53;0.50;;;0.50;;
4186;SDS011;2107;52.306;10.484;2023-03-18T08:14:20;0.40;;;0.40;;
4186;SDS011;2107;52.306;10.484;2023-03-18T08:16:47;0.40;;;0.40;;
4186;SDS011;2107;52.306;10.484;2023-03-18T08:19:14;0.40;;;0.40;;
4186;SDS011;2107;52.306;10.484;2023-03-18T08:21:41;0.30;;;0.30;;
4186;SDS011;2107;52.306;10.484;2023-03-18T08:24:08;0.30;;;0.30;;
4186;SDS011;2107;52.306;10.484;2023-03-18T08:26:35;0.30;;;0.30;;
4186;SDS011;2107;52.306;10.484;2023-03-18T08:29:04;0.40;;;0.40;;
4186;SDS011;2107;52.306;10.484;2023-03-18T08:31:31;0.43;;;0.43;;
4186;SDS011;2107;52.306;10.484;2023-03-18T08:33:58;0.40;;;0.40;;
4186;SDS011;2107;52.306;10.484;2023-03-18T08:36:25;0.30;;;0.30;;
4186;SDS011;2107;52.306;10.484;2023-03-18T08:38:52;0.30;;;0.30;;
4186;SDS011;2107;52.306;10.484;2023-03-18T08:41:20;0.40;;;0.40;;
4186;SDS011;2107;52.306;10.484;2023-03-18T08:43:49;0.40;;;0.40;;
4186;SDS011;2107;52.306;10.484;2023-03-18T08:46:21;0.40;;;0.40;;
4186;SDS011;2107;52.306;10.484;2023-03-18T08:48:48;0.40;;;0.40;;
4186;SDS011;2107;52.306;10.484;2023-03-18T08:51:18;0.40;;;0.40;;
4186;SDS011;2107;52.306;10.484;2023-03-18T08:53:46;0.50;;;0.50;;
4186;SDS011;2107;52.306;10.484;2023-03-18T08:56:13;0.40;;;0.40;;
4186;SDS011;2107;52.306;10.484;2023-03-18T08:58:41;0.33;;;0.33;;
4186;SDS011;2107;52.306;10.484;2023-03-18T09:01:10;0.40;;;0.40;;
4186;SDS011;2107;52.306;10.484;2023-03-18T09:03:38;0.40;;;0.40;;
4186;SDS011;2107;52.306;10.484;2023-03-18T09:06:05;0.50;;;0.50;;
4186;SDS011;2107;52.306;10.484;2023-03-18T09:08:33;0.40;;;0.40;;
4186;SDS011;2107;52.306;10.484;2023-03-18T09:11:00;0.50;;;0.50;;
4186;SDS011;2107;52.306;10.484;2023-03-18T09:13:27;0.50;;;0.50;;
4186;SDS011;2107;52.306;10.484;2023-03-18T09:15:54;0.50;;;0.50;;
4186;SDS011;2107;52.306;10.484;2023-03-18T09:18:21;0.40;;;0.40;;
4186;SDS011;2107;52.306;10.484;2023-03-18T09:20:50;0.47;;;0.47;;
4186;SDS011;2107;52.306;10.484;2023-03-18T09:23:17;0.60;;;0.60;;
4186;SDS011;2107;52.306;10.484;2023-03-18T09:25:45;0.70;;;0.70;;
4186;SDS011;2107;52.306;10.484;2023-03-18T09:28:12;0.60;;;0.60;;
4186;SDS011;2107;52.306;10.484;2023-03-18T09:30:39;0.50;;;0.50;;
4186;SDS011;2107;52.306;10.484;2023-03-18T09:33:07;0.60;;;0.60;;
4186;SDS011;2107;52.306;10.484;2023-03-18T09:35:45;0.70;;;0.70;;
4186;SDS011;2107;52.306;10.484;2023-03-18T09:38:15;0.60;;;0.60;;
4186;SDS011;2107;52.306;10.484;2023-03-18T09:40:45;0.73;;;0.73;;
4186;SDS011;2107;52.306;10.484;2023-03-18T09:43:27;0.60;;;0.60;;
4186;SDS011;2107;52.306;10.484;2023-03-18T09:46:05;0.80;;;0.80;;
4186;SDS011;2107;52.306;10.484;2023-03-18T09:48:51;0.70;;;0.70;;
4186;SDS011;2107;52.306;10.484;2023-03-18T09:51:31;0.70;;;0.70;;
4186;SDS011;2107;52.306;10.484;2023-03-18T09:54:07;0.60;;;0.60;;
4186;SDS011;2107;52.306;10.484;2023-03-18T09:56:37;0.80;;;0.80;;
4186;SDS011;2107;52.306;10.484;2023-03-18T09:59:10;0.60;;;0.60;;
4186;SDS011;2107;52.306;10.484;2023-03-18T10:01:43;0.50;;;0.50;;
4186;SDS011;2107;52.306;10.484;2023-03-18T10:04:15;0.50;;;0.50;;
4186;SDS011;2107;52.306;10.484;2023-03-18T10:06:45;0.60;;;0.60;;
4186;SDS011;2107;52.306;10.484;2023-03-18T10:09:18;0.50;;;0.50;;
4186;SDS011;2107;52.306;10.484;2023-03-18T10:11:50;0.60;;;0.60;;
4186;SDS011;2107;52.306;10.484;2023-03-18T10:14:20;0.67;;;0.67;;
4186;SDS011;2107;52.306;10.484;2023-03-18T10:16:59;0.70;;;0.70;;
4186;SDS011;2107;52.306;10.484;2023-03-18T10:19:31;0.60;;;0.60;;
4186;SDS011;2107;52.306;10.484;2023-03-18T10:22:06;0.60;;;0.60;;
4186;SDS011;2107;52.306;10.484;2023-03-18T10:24:47;0.77;;;0.77;;
4186;SDS011;2107;52.306;10.484;2023-03-18T10:27:20;0.70;;;0.70;;
4186;SDS011;2107;52.306;10.484;2023-03-18T10:29:58;0.60;;;0.60;;
4186;SDS011;2107;52.306;10.484;2023-03-18T10:32:30;0.70;;;0.70;;
4186;SDS011;2107;52.306;10.484;2023-03-18T10:35:13;0.60;;;0.60;;
4186;SDS011;2107;52.306;10.484;2023-03-18T10:37:52;0.50;;;0.50;;
4186;SDS011;2107;52.306;10.484;2023-03-18T10:40:24;0.63;;;0.63;;
4186;SDS011;2107;52.306;10.484;2023-03-18T10:42:59;0.60;;;0.60;;
4186;SDS011;2107;52.306;10.484;2023-03-18T10:45:30;0.60;;;0.60;;
4186;SDS011;2107;52.306;10.484;2023-03-18T10:48:00;0.70;;;0.70;;
4186;SDS011;2107;52.306;10.484;2023-03-18T10:50:34;0.50;;;0.50;;
4186;SDS011;2107;52.306;10.484;2023-03-18T10:53:05;0.60;;;0.60;;
4186;SDS011;2107;52.306;10.484;2023-03-18T10:55:44;0.70;;;0.70;;
4186;SDS011;2107;52.306;10.484;2023-03-18T10:58:19;0.60;;;0.60;;
4186;SDS011;2107;52.306;10.484;2023-03-18T11:00:46;0.60;;;0.60;;
4186;SDS011;2107;52.306;10.484;2023-03-18T11:03:19;0.80;;;0.80;;
4186;SDS011;2107;52.306;10.484;2023-03-18T11:05:49;0.60;;;0.60;;
4186;SDS011;2107;52.306;10.484;2023-03-18T11:08:29;0.70;;;0.70;;
4186;SDS011;2107;52.306;10.484;2023-03-18T11:11:02;0.63;;;0.63;;
4186;SDS011;2107;52.306;10.484;2023-03-18T11:13:48;0.67;;;0.67;;
4186;SDS011;2107;52.306;10.484;2023-03-18T11:16:24;0.80;;;0.80;;
4186;SDS011;2107;52.306;10.484;2023-03-18T11:18:58;0.60;;;0.60;;
4186;SDS011;2107;52.306;10.484;2023-03-18T11:21:31;0.70;;;0.70;;
4186;SDS011;2107;52.306;10.484;2023-03-18T11:23:58;0.70;;;0.70;;
4186;SDS011;2107;52.306;10.484;2023-03-18T11:26:47;0.70;;;0.70;;
4186;SDS011;2107;52.306;10.484;2023-03-18T11:29:20;0.80;;;0.80;;
4186;SDS011;2107;52.306;10.484;2023-03-18T11:31:52;1.00;;;1.00;;
4186;SDS011;2107;52.306;10.484;2023-03-18T11:34:22;0.60;;;0.60;;
4186;SDS011;2107;52.306;10.484;2023-03-18T11:36:53;0.60;;;0.60;;
4186;SDS011;2107;52.306;10.484;2023-03-18T11:39:26;0.70;;;0.70;;
4186;SDS011;2107;52.306;10.484;2023-03-18T11:41:56;0.50;;;0.50;;
4186;SDS011;2107;52.306;10.484;2023-03-18T11:44:28;0.60;;;0.60;;
4186;SDS011;2107;52.306;10.484;2023-03-18T11:47:05;0.63;;;0.63;;
4186;SDS011;2107;52.306;10.484;2023-03-18T11:49:37;0.70;;;0.70;;
4186;SDS011;2107;52.306;10.484;2023-03-18T11:52:18;0.60;;;0.60;;
4186;SDS011;2107;52.306;10.484;2023-03-18T11:54:58;0.67;;;0.67;;
4186;SDS011;2107;52.306;10.484;2023-03-18T11:57:53;0.70;;;0.70;;
4186;SDS011;2107;52.306;10.484;2023-03-18T12:00:33;0.70;;;0.70;;
4186;SDS011;2107;52.306;10.484;2023-03-18T12:03:21;0.80;;;0.80;;
4186;SDS011;2107;52.306;10.484;2023-03-18T12:06:15;0.70;;;0.70;;
4186;SDS011;2107;52.306;10.484;2023-03-18T12:08:48;0.80;;;0.80;;
4186;SDS011;2107;52.306;10.484;2023-03-18T12:11:23;0.83;;;0.83;;
4186;SDS011;2107;52.306;10.484;2023-03-18T12:14:00;0.77;;;0.77;;
4186;SDS011;2107;52.306;10.484;2023-03-18T12:16:37;0.63;;;0.63;;
4186;SDS011;2107;52.306;10.484;2023-03-18T12:19:22;0.63;;;0.63;;
4186;SDS011;2107;52.306;10.484;2023-03-18T12:22:19;0.43;;;0.43;;
4186;SDS011;2107;52.306;10.484;2023-03-18T12:24:57;0.80;;;0.80;;
4186;SDS011;2107;52.306;10.484;2023-03-18T12:27:35;0.80;;;0.80;;
4186;SDS011;2107;52.306;10.484;2023-03-18T12:30:14;0.70;;;0.70;;
4186;SDS011;2107;52.306;10.484;2023-03-18T12:32:53;0.80;;;0.80;;
4186;SDS011;2107;52.306;10.484;2023-03-18T12:35:31;0.90;;;0.90;;
4186;SDS011;2107;52.306;10.484;2023-03-18T12:38:16;0.70;;;0.70;;
4186;SDS011;2107;52.306;10.484;2023-03-18T12:41:25;0.80;;;0.80;;
4186;SDS011;2107;52.306;10.484;2023-03-18T12:44:02;0.70;;;0.70;;
4186;SDS011;2107;52.306;10.484;2023-03-18T12:46:41;0.80;;;0.80;;
4186;SDS011;2107;52.306;10.484;2023-03-18T12:49:13;0.60;;;0.60;;
4186;SDS011;2107;52.306;10.484;2023-03-18T12:51:47;0.50;;;0.50;;
4186;SDS011;2107;52.306;10.484;2023-03-18T12:54:20;0.50;;;0.50;;
4186;SDS011;2107;52.306;10.484;2023-03-18T12:56:52;0.50;;;0.50;;
4186;SDS011;2107;52.306;10.484;2023-03-18T12:59:23;0.30;;;0.30;;
4186;SDS011;2107;52.306;10.484;2023-03-18T13:02:05;0.30;;;0.30;;
4186;SDS011;2107;52.306;10.484;2023-03-18T13:04:46;0.40;;;0.40;;
4186;SDS011;2107;52.306;10.484;2023-03-18T13:07:20;0.40;;;0.40;;
4186;SDS011;2107;52.306;10.484;2023-03-18T13:09:56;0.30;;;0.30;;
4186;SDS011;2107;52.306;10.484;2023-03-18T13:12:28;0.40;;;0.40;;
4186;SDS011;2107;52.306;10.484;2023-03-18T13:14:59;0.50;;;0.50;;
4186;SDS011;2107;52.306;10.484;2023-03-18T13:17:34;0.60;;;0.60;;
4186;SDS011;2107;52.306;10.484;2023-03-18T13:20:08;0.70;;;0.70;;
4186;SDS011;2107;52.306;10.484;2023-03-18T13:22:48;0.70;;;0.70;;
4186;SDS011;2107;52.306;10.484;2023-03-18T13:25:28;0.70;;;0.70;;
4186;SDS011;2107;52.306;10.484;2023-03-18T13:28:07;0.77;;;0.77;;
4186;SDS011;2107;52.306;10.484;2023-03-18T13:30:47;0.77;;;0.77;;
4186;SDS011;2107;52.306;10.484;2023-03-18T13:33:37;0.70;;;0.70;;
4186;SDS011;2107;52.306;10.484;2023-03-18T13:36:35;0.70;;;0.70;;
4186;SDS011;2107;52.306;10.484;2023-03-18T13:39:22;0.60;;;0.60;;
4186;SDS011;2107;52.306;10.484;2023-03-18T13:42:17;0.93;;;0.93;;
4186;SDS011;2107;52.306;10.484;2023-03-18T13:44:51;0.70;;;0.70;;
4186;SDS011;2107;52.306;10.484;2023-03-18T13:47:26;0.70;;;0.70;;
4186;SDS011;2107;52.306;10.484;2023-03-18T13:50:00;0.80;;;0.80;;
4186;SDS011;2107;52.306;10.484;2023-03-18T13:52:32;0.90;;;0.90;;
4186;SDS011;2107;52.306;10.484;2023-03-18T13:55:03;0.80;;;0.80;;
4186;SDS011;2107;52.306;10.484;2023-03-18T13:57:34;0.90;;;0.90;;
4186;SDS011;2107;52.306;10.484;2023-03-18T14:00:21;1.00;;;1.00;;
4186;SDS011;2107;52.306;10.484;2023-03-18T14:03:05;0.90;;;0.90;;
4186;SDS011;2107;52.306;10.484;2023-03-18T14:05:44;0.90;;;0.90;;
4186;SDS011;2107;52.306;10.484;2023-03-18T14:17:46;0.80;;;0.80;;
4186;SDS011;2107;52.306;10.484;2023-03-18T14:20:24;0.83;;;0.83;;
4186;SDS011;2107;52.306;10.484;2023-03-18T14:22:55;0.90;;;0.90;;
4186;SDS011;2107;52.306;10.484;2023-03-18T14:25:43;0.90;;;0.90;;
4186;SDS011;2107;52.306;10.484;2023-03-18T14:28:20;0.80;;;0.80;;
4186;SDS011;2107;52.306;10.484;2023-03-18T14:33:58;1.20;;;1.20;;
4186;SDS011;2107;52.306;10.484;2023-03-18T14:36:45;0.80;;;0.80;;
4186;SDS011;2107;52.306;10.484;2023-03-18T14:39:31;0.80;;;0.80;;
4186;SDS011;2107;52.306;10.484;2023-03-18T14:42:03;0.90;;;0.90;;
4186;SDS011;2107;52.306;10.484;2023-03-18T14:44:39;0.70;;;0.70;;
4186;SDS011;2107;52.306;10.484;2023-03-18T14:47:16;0.90;;;0.90;;
4186;SDS011;2107;52.306;10.484;2023-03-18T14:49:46;0.83;;;0.83;;
4186;SDS011;2107;52.306;10.484;2023-03-18T14:52:19;0.80;;;0.80;;
4186;SDS011;2107;52.306;10.484;2023-03-18T14:54:54;0.80;;;0.80;;
4186;SDS011;2107;52.306;10.484;2023-03-18T14:57:24;0.80;;;0.80;;
4186;SDS011;2107;52.306;10.484;2023-03-18T14:59:51;0.60;;;0.60;;
4186;SDS011;2107;52.306;10.484;2023-03-18T15:02:21;1.37;;;1.37;;
4186;SDS011;2107;52.306;10.484;2023-03-18T15:04:54;1.50;;;1.50;;
4186;SDS011;2107;52.306;10.484;2023-03-18T15:07:24;1.50;;;1.50;;
4186;SDS011;2107;52.306;10.484;2023-03-18T15:10:01;1.50;;;1.50;;
4186;SDS011;2107;52.306;10.484;2023-03-18T15:12:35;1.50;;;1.50;;
4186;SDS011;2107;52.306;10.484;2023-03-18T15:15:03;1.50;;;1.50;;
4186;SDS011;2107;52.306;10.484;2023-03-18T15:17:30;1.43;;;1.43;;
4186;SDS011;2107;52.306;10.484;2023-03-18T15:19:57;1.60;;;1.60;;
4186;SDS011;2107;52.306;10.484;2023-03-18T15:22:26;1.50;;;1.50;;
4186;SDS011;2107;52.306;10.484;2023-03-18T15:24:56;1.50;;;1.50;;
4186;SDS011;2107;52.306;10.484;2023-03-18T15:27:27;1.60;;;1.60;;
4186;SDS011;2107;52.306;10.484;2023-03-18T15:29:56;1.50;;;1.50;;
4186;SDS011;2107;52.306;10.484;2023-03-18T15:32:24;1.37;;;1.37;;
4186;SDS011;2107;52.306;10.484;2023-03-18T15:34:52;1.40;;;1.40;;